sensor_id;sensor_type;location;lat;lon;timestamp;P1;durP1;ratioP1;P2;durP2;ratioP2
68993;SDS011;56054;50.968;5.816;2024-01-27T00:00:13;12.40;;;2.70;;
68993;SDS011;56054;50.968;5.816;2024-01-27T00:03:20;17.43;;;3.13;;
68993;SDS011;56054;50.968;5.816;2024-01-27T00:06:27;9.37;;;2.80;;
68993;SDS011;56054;50.968;5.816;2024-01-27T00:09:34;14.37;;;3.13;;
68993;SDS011;56054;50.968;5.816;2024-01-27T00:12:41;18.57;;;3.30;;
68993;SDS011;56054;50.968;5.816;2024-01-27T00:15:48;7.90;;;2.10;;
68993;SDS011;56054;50.968;5.816;2024-01-27T00:18:55;9.83;;;2.70;;
68993;SDS011;56054;50.968;5.816;2024-01-27T00:22:02;10.77;;;3.20;;
68993;SDS011;56054;50.968;5.816;2024-01-27T00:25:09;9.03;;;2.57;;
68993;SDS011;56054;50.968;5.816;2024-01-27T00:28:16;21.67;;;4.00;;
68993;SDS011;56054;50.968;5.816;2024-01-27T00:31:23;12.07;;;2.53;;
68993;SDS011;56054;50.968;5.816;2024-01-27T00:34:37;10.13;;;3.20;;
68993;SDS011;56054;50.968;5.816;2024-01-27T00:37:44;16.40;;;3.20;;
68993;SDS011;56054;50.968;5.816;2024-01-27T00:40:51;10.13;;;2.93;;
68993;SDS011;56054;50.968;5.816;2024-01-27T00:43:58;10.17;;;2.80;;
68993;SDS011;56054;50.968;5.816;2024-01-27T00:47:05;10.77;;;2.27;;
68993;SDS011;56054;50.968;5.816;2024-01-27T00:50:12;12.70;;;2.37;;
68993;SDS011;56054;50.968;5.816;2024-01-27T00:53:19;14.50;;;2.63;;
68993;SDS011;56054;50.968;5.816;2024-01-27T00:56:26;11.10;;;2.40;;
68993;SDS011;56054;50.968;5.816;2024-01-27T00:59:33;11.40;;;2.50;;
68993;SDS011;56054;50.968;5.816;2024-01-27T01:02:40;12.47;;;2.90;;
68993;SDS011;56054;50.968;5.816;2024-01-27T01:05:47;18.60;;;2.83;;
68993;SDS011;56054;50.968;5.816;2024-01-27T01:08:54;13.83;;;2.40;;
68993;SDS011;56054;50.968;5.816;2024-01-27T01:12:01;10.93;;;1.90;;
68993;SDS011;56054;50.968;5.816;2024-01-27T01:15:08;21.20;;;3.20;;
68993;SDS011;56054;50.968;5.816;2024-01-27T01:18:15;14.77;;;3.47;;
68993;SDS011;56054;50.968;5.816;2024-01-27T01:21:22;17.70;;;3.63;;
68993;SDS011;56054;50.968;5.816;2024-01-27T01:24:29;9.77;;;2.77;;
68993;SDS011;56054;50.968;5.816;2024-01-27T01:27:36;10.60;;;2.87;;
68993;SDS011;56054;50.968;5.816;2024-01-27T01:30:43;9.77;;;2.67;;
68993;SDS011;56054;50.968;5.816;2024-01-27T01:33:50;12.43;;;2.67;;
68993;SDS011;56054;50.968;5.816;2024-01-27T01:36:57;14.37;;;2.83;;
68993;SDS011;56054;50.968;5.816;2024-01-27T01:40:04;12.37;;;2.57;;
68993;SDS011;56054;50.968;5.816;2024-01-27T01:43:12;11.13;;;2.83;;
68993;SDS011;56054;50.968;5.816;2024-01-27T01:46:19;11.90;;;3.03;;
68993;SDS011;56054;50.968;5.816;2024-01-27T01:49:28;9.57;;;2.37;;
68993;SDS011;56054;50.968;5.816;2024-01-27T01:52:35;11.47;;;2.33;;
68993;SDS011;56054;50.968;5.816;2024-01-27T01:55:43;9.20;;;2.37;;
68993;SDS011;56054;50.968;5.816;2024-01-27T01:58:50;10.00;;;2.67;;
68993;SDS011;56054;50.968;5.816;2024-01-27T02:01:57;6.63;;;2.57;;
68993;SDS011;56054;50.968;5.816;2024-01-27T02:05:04;11.63;;;3.27;;
68993;SDS011;56054;50.968;5.816;2024-01-27T02:08:11;12.23;;;2.50;;
68993;SDS011;56054;50.968;5.816;2024-01-27T02:11:18;13.43;;;2.50;;
68993;SDS011;56054;50.968;5.816;2024-01-27T02:14:25;11.87;;;2.47;;
68993;SDS011;56054;50.968;5.816;2024-01-27T02:17:40;5.97;;;2.63;;
68993;SDS011;56054;50.968;5.816;2024-01-27T02:20:47;14.07;;;3.13;;
68993;SDS011;56054;50.968;5.816;2024-01-27T02:23:54;16.73;;;2.33;;
68993;SDS011;56054;50.968;5.816;2024-01-27T02:27:01;12.10;;;2.97;;
68993;SDS011;56054;50.968;5.816;2024-01-27T02:30:08;7.33;;;2.87;;
68993;SDS011;56054;50.968;5.816;2024-01-27T02:33:15;13.60;;;2.87;;
68993;SDS011;56054;50.968;5.816;2024-01-27T02:36:22;14.17;;;3.50;;
68993;SDS011;56054;50.968;5.816;2024-01-27T02:39:29;15.23;;;3.20;;
68993;SDS011;56054;50.968;5.816;2024-01-27T02:42:36;11.53;;;2.50;;
68993;SDS011;56054;50.968;5.816;2024-01-27T02:45:43;21.37;;;3.20;;
68993;SDS011;56054;50.968;5.816;2024-01-27T02:48:50;18.47;;;3.83;;
68993;SDS011;56054;50.968;5.816;2024-01-27T02:51:57;12.47;;;3.67;;
68993;SDS011;56054;50.968;5.816;2024-01-27T02:55:04;23.80;;;3.57;;
68993;SDS011;56054;50.968;5.816;2024-01-27T02:58:12;12.10;;;3.17;;
68993;SDS011;56054;50.968;5.816;2024-01-27T03:01:19;13.13;;;2.93;;
68993;SDS011;56054;50.968;5.816;2024-01-27T03:04:26;10.87;;;3.63;;
68993;SDS011;56054;50.968;5.816;2024-01-27T03:07:33;8.97;;;2.70;;
68993;SDS011;56054;50.968;5.816;2024-01-27T03:10:41;10.50;;;2.80;;
68993;SDS011;56054;50.968;5.816;2024-01-27T03:13:48;16.50;;;2.87;;
68993;SDS011;56054;50.968;5.816;2024-01-27T03:16:55;13.13;;;3.50;;
68993;SDS011;56054;50.968;5.816;2024-01-27T03:20:02;16.03;;;4.10;;
68993;SDS011;56054;50.968;5.816;2024-01-27T03:23:09;13.20;;;3.40;;
68993;SDS011;56054;50.968;5.816;2024-01-27T03:26:16;15.30;;;4.07;;
68993;SDS011;56054;50.968;5.816;2024-01-27T03:29:23;19.60;;;3.20;;
68993;SDS011;56054;50.968;5.816;2024-01-27T03:32:30;11.80;;;3.57;;
68993;SDS011;56054;50.968;5.816;2024-01-27T03:35:37;14.17;;;3.53;;
68993;SDS011;56054;50.968;5.816;2024-01-27T03:38:44;17.20;;;3.43;;
68993;SDS011;56054;50.968;5.816;2024-01-27T03:41:51;11.37;;;3.77;;
68993;SDS011;56054;50.968;5.816;2024-01-27T03:44:58;11.93;;;3.87;;
68993;SDS011;56054;50.968;5.816;2024-01-27T03:48:05;18.93;;;3.57;;
68993;SDS011;56054;50.968;5.816;2024-01-27T03:51:12;17.70;;;3.40;;
68993;SDS011;56054;50.968;5.816;2024-01-27T03:54:19;13.27;;;3.53;;
68993;SDS011;56054;50.968;5.816;2024-01-27T03:57:26;8.83;;;3.17;;
68993;SDS011;56054;50.968;5.816;2024-01-27T04:00:33;18.37;;;3.53;;
68993;SDS011;56054;50.968;5.816;2024-01-27T04:03:40;13.70;;;3.87;;
68993;SDS011;56054;50.968;5.816;2024-01-27T04:06:47;7.50;;;3.13;;
68993;SDS011;56054;50.968;5.816;2024-01-27T04:09:54;18.23;;;3.17;;
68993;SDS011;56054;50.968;5.816;2024-01-27T04:13:01;15.10;;;3.60;;
68993;SDS011;56054;50.968;5.816;2024-01-27T04:16:08;11.03;;;3.17;;
68993;SDS011;56054;50.968;5.816;2024-01-27T04:19:15;12.43;;;3.43;;
68993;SDS011;56054;50.968;5.816;2024-01-27T04:22:22;14.57;;;4.10;;
68993;SDS011;56054;50.968;5.816;2024-01-27T04:25:29;9.93;;;3.53;;
68993;SDS011;56054;50.968;5.816;2024-01-27T04:28:36;11.10;;;3.10;;
68993;SDS011;56054;50.968;5.816;2024-01-27T04:31:43;20.43;;;3.50;;
68993;SDS011;56054;50.968;5.816;2024-01-27T04:34:50;17.07;;;3.53;;
68993;SDS011;56054;50.968;5.816;2024-01-27T04:37:57;8.80;;;2.57;;
68993;SDS011;56054;50.968;5.816;2024-01-27T04:41:04;22.07;;;3.93;;
68993;SDS011;56054;50.968;5.816;2024-01-27T04:44:11;17.47;;;3.70;;
68993;SDS011;56054;50.968;5.816;2024-01-27T04:47:18;22.50;;;3.43;;
68993;SDS011;56054;50.968;5.816;2024-01-27T04:50:25;14.13;;;2.90;;
68993;SDS011;56054;50.968;5.816;2024-01-27T04:53:32;14.07;;;3.20;;
68993;SDS011;56054;50.968;5.816;2024-01-27T04:56:39;8.83;;;3.43;;
68993;SDS011;56054;50.968;5.816;2024-01-27T04:59:47;17.03;;;3.60;;
68993;SDS011;56054;50.968;5.816;2024-01-27T05:02:54;20.43;;;3.87;;
68993;SDS011;56054;50.968;5.816;2024-01-27T05:06:01;17.47;;;3.37;;
68993;SDS011;56054;50.968;5.816;2024-01-27T05:09:15;13.23;;;3.70;;
68993;SDS011;56054;50.968;5.816;2024-01-27T05:12:22;16.03;;;3.77;;
68993;SDS011;56054;50.968;5.816;2024-01-27T05:15:29;17.43;;;3.33;;
68993;SDS011;56054;50.968;5.816;2024-01-27T05:18:36;15.77;;;3.40;;
68993;SDS011;56054;50.968;5.816;2024-01-27T05:21:43;13.63;;;3.57;;
68993;SDS011;56054;50.968;5.816;2024-01-27T05:24:50;12.20;;;4.73;;
68993;SDS011;56054;50.968;5.816;2024-01-27T05:27:57;18.00;;;4.00;;
68993;SDS011;56054;50.968;5.816;2024-01-27T05:31:06;14.37;;;3.33;;
68993;SDS011;56054;50.968;5.816;2024-01-27T05:34:13;14.57;;;3.83;;
68993;SDS011;56054;50.968;5.816;2024-01-27T05:37:20;13.63;;;3.33;;
68993;SDS011;56054;50.968;5.816;2024-01-27T05:40:27;11.73;;;3.10;;
68993;SDS011;56054;50.968;5.816;2024-01-27T05:43:34;15.57;;;3.40;;
68993;SDS011;56054;50.968;5.816;2024-01-27T05:46:41;13.53;;;3.27;;
68993;SDS011;56054;50.968;5.816;2024-01-27T05:49:48;14.50;;;3.87;;
68993;SDS011;56054;50.968;5.816;2024-01-27T05:52:55;18.63;;;4.47;;
68993;SDS011;56054;50.968;5.816;2024-01-27T05:56:02;19.37;;;3.33;;
68993;SDS011;56054;50.968;5.816;2024-01-27T05:59:09;15.80;;;3.27;;
68993;SDS011;56054;50.968;5.816;2024-01-27T06:02:16;19.93;;;3.60;;
68993;SDS011;56054;50.968;5.816;2024-01-27T06:05:23;13.50;;;4.00;;
68993;SDS011;56054;50.968;5.816;2024-01-27T06:08:30;13.27;;;3.77;;
68993;SDS011;56054;50.968;5.816;2024-01-27T06:11:37;10.97;;;2.77;;
68993;SDS011;56054;50.968;5.816;2024-01-27T06:14:44;12.77;;;3.53;;
68993;SDS011;56054;50.968;5.816;2024-01-27T06:17:51;10.77;;;3.53;;
68993;SDS011;56054;50.968;5.816;2024-01-27T06:20:58;18.27;;;3.43;;
68993;SDS011;56054;50.968;5.816;2024-01-27T06:24:05;13.40;;;3.10;;
68993;SDS011;56054;50.968;5.816;2024-01-27T06:27:12;13.73;;;3.23;;
68993;SDS011;56054;50.968;5.816;2024-01-27T06:30:19;13.53;;;4.27;;
68993;SDS011;56054;50.968;5.816;2024-01-27T06:33:26;11.40;;;3.60;;
68993;SDS011;56054;50.968;5.816;2024-01-27T06:36:33;10.53;;;3.37;;
68993;SDS011;56054;50.968;5.816;2024-01-27T06:39:40;12.73;;;3.70;;
68993;SDS011;56054;50.968;5.816;2024-01-27T06:42:47;10.57;;;3.33;;
68993;SDS011;56054;50.968;5.816;2024-01-27T06:45:54;10.60;;;2.80;;
68993;SDS011;56054;50.968;5.816;2024-01-27T06:49:01;10.63;;;3.03;;
68993;SDS011;56054;50.968;5.816;2024-01-27T06:52:08;18.87;;;2.77;;
68993;SDS011;56054;50.968;5.816;2024-01-27T06:55:15;9.97;;;3.03;;
68993;SDS011;56054;50.968;5.816;2024-01-27T06:58:22;9.33;;;2.87;;
68993;SDS011;56054;50.968;5.816;2024-01-27T07:01:29;12.47;;;3.13;;
68993;SDS011;56054;50.968;5.816;2024-01-27T07:04:36;13.00;;;3.03;;
68993;SDS011;56054;50.968;5.816;2024-01-27T07:07:43;8.50;;;2.40;;
68993;SDS011;56054;50.968;5.816;2024-01-27T07:10:50;14.30;;;3.73;;
68993;SDS011;56054;50.968;5.816;2024-01-27T07:13:57;14.93;;;2.80;;
68993;SDS011;56054;50.968;5.816;2024-01-27T07:17:04;16.87;;;3.23;;
68993;SDS011;56054;50.968;5.816;2024-01-27T07:20:11;9.93;;;2.60;;
68993;SDS011;56054;50.968;5.816;2024-01-27T07:23:18;15.30;;;3.53;;
68993;SDS011;56054;50.968;5.816;2024-01-27T07:26:25;13.80;;;3.40;;
68993;SDS011;56054;50.968;5.816;2024-01-27T07:29:32;9.03;;;3.10;;
68993;SDS011;56054;50.968;5.816;2024-01-27T07:32:39;15.20;;;3.07;;
68993;SDS011;56054;50.968;5.816;2024-01-27T07:35:46;11.90;;;3.33;;
68993;SDS011;56054;50.968;5.816;2024-01-27T07:38:53;6.63;;;2.33;;
68993;SDS011;56054;50.968;5.816;2024-01-27T07:42:00;10.87;;;2.53;;
68993;SDS011;56054;50.968;5.816;2024-01-27T07:45:07;11.13;;;2.70;;
68993;SDS011;56054;50.968;5.816;2024-01-27T07:48:14;11.83;;;2.73;;
68993;SDS011;56054;50.968;5.816;2024-01-27T07:51:21;11.80;;;2.17;;
68993;SDS011;56054;50.968;5.816;2024-01-27T07:54:28;12.60;;;2.37;;
68993;SDS011;56054;50.968;5.816;2024-01-27T07:57:35;15.20;;;2.20;;
68993;SDS011;56054;50.968;5.816;2024-01-27T08:00:42;14.23;;;2.43;;
68993;SDS011;56054;50.968;5.816;2024-01-27T08:03:49;10.50;;;2.37;;
68993;SDS011;56054;50.968;5.816;2024-01-27T08:06:56;8.33;;;2.30;;
68993;SDS011;56054;50.968;5.816;2024-01-27T08:10:03;17.00;;;2.80;;
68993;SDS011;56054;50.968;5.816;2024-01-27T08:13:10;11.63;;;2.40;;
68993;SDS011;56054;50.968;5.816;2024-01-27T08:16:17;10.97;;;2.33;;
68993;SDS011;56054;50.968;5.816;2024-01-27T08:19:24;7.80;;;2.47;;
68993;SDS011;56054;50.968;5.816;2024-01-27T08:22:31;9.90;;;2.00;;
68993;SDS011;56054;50.968;5.816;2024-01-27T08:25:38;14.50;;;2.30;;
68993;SDS011;56054;50.968;5.816;2024-01-27T08:28:45;12.17;;;2.40;;
68993;SDS011;56054;50.968;5.816;2024-01-27T08:31:52;16.53;;;2.83;;
68993;SDS011;56054;50.968;5.816;2024-01-27T08:34:59;10.47;;;2.70;;
68993;SDS011;56054;50.968;5.816;2024-01-27T08:38:06;11.10;;;2.47;;
68993;SDS011;56054;50.968;5.816;2024-01-27T08:41:13;16.03;;;3.57;;
68993;SDS011;56054;50.968;5.816;2024-01-27T08:44:20;12.90;;;2.60;;
68993;SDS011;56054;50.968;5.816;2024-01-27T08:47:27;11.97;;;2.93;;
68993;SDS011;56054;50.968;5.816;2024-01-27T08:50:34;11.83;;;2.67;;
68993;SDS011;56054;50.968;5.816;2024-01-27T08:53:41;12.00;;;2.90;;
68993;SDS011;56054;50.968;5.816;2024-01-27T08:56:48;13.27;;;2.27;;
68993;SDS011;56054;50.968;5.816;2024-01-27T08:59:55;14.33;;;2.10;;
68993;SDS011;56054;50.968;5.816;2024-01-27T09:03:02;14.63;;;2.90;;
68993;SDS011;56054;50.968;5.816;2024-01-27T09:06:09;7.40;;;2.23;;
68993;SDS011;56054;50.968;5.816;2024-01-27T09:09:16;10.90;;;2.73;;
68993;SDS011;56054;50.968;5.816;2024-01-27T09:12:23;8.37;;;2.23;;
68993;SDS011;56054;50.968;5.816;2024-01-27T09:15:30;6.57;;;1.80;;
68993;SDS011;56054;50.968;5.816;2024-01-27T09:18:37;8.60;;;2.20;;
68993;SDS011;56054;50.968;5.816;2024-01-27T09:21:44;9.03;;;1.83;;
68993;SDS011;56054;50.968;5.816;2024-01-27T09:24:51;14.00;;;3.00;;
68993;SDS011;56054;50.968;5.816;2024-01-27T09:27:58;15.63;;;2.93;;
68993;SDS011;56054;50.968;5.816;2024-01-27T09:31:05;8.13;;;2.33;;
68993;SDS011;56054;50.968;5.816;2024-01-27T09:34:12;8.37;;;2.20;;
68993;SDS011;56054;50.968;5.816;2024-01-27T09:37:19;14.50;;;1.80;;
68993;SDS011;56054;50.968;5.816;2024-01-27T09:40:26;10.47;;;2.23;;
68993;SDS011;56054;50.968;5.816;2024-01-27T09:43:33;13.50;;;2.27;;
68993;SDS011;56054;50.968;5.816;2024-01-27T09:46:41;10.60;;;1.90;;
68993;SDS011;56054;50.968;5.816;2024-01-27T09:49:48;10.33;;;2.30;;
68993;SDS011;56054;50.968;5.816;2024-01-27T09:52:56;9.57;;;1.80;;
68993;SDS011;56054;50.968;5.816;2024-01-27T09:56:03;11.73;;;2.57;;
68993;SDS011;56054;50.968;5.816;2024-01-27T09:59:10;11.07;;;2.43;;
68993;SDS011;56054;50.968;5.816;2024-01-27T10:02:17;11.90;;;2.40;;
68993;SDS011;56054;50.968;5.816;2024-01-27T10:05:25;15.90;;;2.57;;
68993;SDS011;56054;50.968;5.816;2024-01-27T10:08:33;10.90;;;2.57;;
68993;SDS011;56054;50.968;5.816;2024-01-27T10:11:40;14.90;;;2.40;;
68993;SDS011;56054;50.968;5.816;2024-01-27T10:14:52;10.23;;;2.37;;
68993;SDS011;56054;50.968;5.816;2024-01-27T10:18:05;14.47;;;2.17;;
68993;SDS011;56054;50.968;5.816;2024-01-27T10:21:14;16.37;;;2.77;;
68993;SDS011;56054;50.968;5.816;2024-01-27T10:24:21;8.73;;;2.30;;
68993;SDS011;56054;50.968;5.816;2024-01-27T10:27:29;13.43;;;2.47;;
68993;SDS011;56054;50.968;5.816;2024-01-27T10:30:36;6.90;;;2.50;;
68993;SDS011;56054;50.968;5.816;2024-01-27T10:33:51;16.40;;;3.00;;
68993;SDS011;56054;50.968;5.816;2024-01-27T10:36:58;11.37;;;2.43;;
68993;SDS011;56054;50.968;5.816;2024-01-27T10:40:08;12.10;;;2.73;;
68993;SDS011;56054;50.968;5.816;2024-01-27T10:43:15;8.70;;;2.33;;
68993;SDS011;56054;50.968;5.816;2024-01-27T10:46:24;9.53;;;3.17;;
68993;SDS011;56054;50.968;5.816;2024-01-27T10:49:33;14.53;;;2.50;;
68993;SDS011;56054;50.968;5.816;2024-01-27T10:52:44;10.07;;;2.40;;
68993;SDS011;56054;50.968;5.816;2024-01-27T10:55:54;15.73;;;2.00;;
68993;SDS011;56054;50.968;5.816;2024-01-27T10:59:04;10.67;;;2.23;;
68993;SDS011;56054;50.968;5.816;2024-01-27T11:02:12;16.47;;;3.67;;
68993;SDS011;56054;50.968;5.816;2024-01-27T11:05:20;13.10;;;2.57;;
68993;SDS011;56054;50.968;5.816;2024-01-27T11:08:30;14.77;;;2.53;;
68993;SDS011;56054;50.968;5.816;2024-01-27T11:11:44;7.50;;;2.50;;
68993;SDS011;56054;50.968;5.816;2024-01-27T11:14:52;13.03;;;2.43;;
68993;SDS011;56054;50.968;5.816;2024-01-27T11:18:00;11.53;;;2.13;;
68993;SDS011;56054;50.968;5.816;2024-01-27T11:21:07;9.43;;;2.20;;
68993;SDS011;56054;50.968;5.816;2024-01-27T11:24:23;11.33;;;2.57;;
68993;SDS011;56054;50.968;5.816;2024-01-27T11:27:30;11.60;;;2.07;;
68993;SDS011;56054;50.968;5.816;2024-01-27T11:30:37;9.30;;;2.70;;
68993;SDS011;56054;50.968;5.816;2024-01-27T11:33:45;11.87;;;2.27;;
68993;SDS011;56054;50.968;5.816;2024-01-27T11:36:54;10.33;;;2.07;;
68993;SDS011;56054;50.968;5.816;2024-01-27T11:40:04;15.07;;;2.40;;
68993;SDS011;56054;50.968;5.816;2024-01-27T11:43:12;7.73;;;1.87;;
68993;SDS011;56054;50.968;5.816;2024-01-27T11:46:19;7.63;;;1.60;;
68993;SDS011;56054;50.968;5.816;2024-01-27T11:49:26;14.53;;;2.20;;
68993;SDS011;56054;50.968;5.816;2024-01-27T11:52:33;9.53;;;1.73;;
68993;SDS011;56054;50.968;5.816;2024-01-27T11:55:40;12.60;;;2.37;;
68993;SDS011;56054;50.968;5.816;2024-01-27T11:58:48;12.63;;;2.80;;
68993;SDS011;56054;50.968;5.816;2024-01-27T12:01:55;11.07;;;1.80;;
68993;SDS011;56054;50.968;5.816;2024-01-27T12:05:02;11.63;;;2.20;;
68993;SDS011;56054;50.968;5.816;2024-01-27T12:08:09;11.70;;;2.33;;
68993;SDS011;56054;50.968;5.816;2024-01-27T12:11:16;9.43;;;2.30;;
68993;SDS011;56054;50.968;5.816;2024-01-27T12:14:23;9.33;;;2.03;;
68993;SDS011;56054;50.968;5.816;2024-01-27T12:17:30;9.63;;;1.67;;
68993;SDS011;56054;50.968;5.816;2024-01-27T12:20:37;7.60;;;1.40;;
68993;SDS011;56054;50.968;5.816;2024-01-27T12:24:02;11.27;;;2.03;;
68993;SDS011;56054;50.968;5.816;2024-01-27T12:27:09;7.47;;;1.70;;
68993;SDS011;56054;50.968;5.816;2024-01-27T12:30:17;9.70;;;2.90;;
68993;SDS011;56054;50.968;5.816;2024-01-27T12:33:24;8.70;;;1.67;;
68993;SDS011;56054;50.968;5.816;2024-01-27T12:36:31;10.20;;;1.90;;
68993;SDS011;56054;50.968;5.816;2024-01-27T12:39:40;7.63;;;1.63;;
68993;SDS011;56054;50.968;5.816;2024-01-27T12:42:50;10.57;;;1.80;;
68993;SDS011;56054;50.968;5.816;2024-01-27T12:45:57;10.83;;;1.80;;
68993;SDS011;56054;50.968;5.816;2024-01-27T12:49:04;8.57;;;3.20;;
68993;SDS011;56054;50.968;5.816;2024-01-27T12:52:11;5.83;;;2.30;;
68993;SDS011;56054;50.968;5.816;2024-01-27T12:55:18;12.13;;;3.23;;
68993;SDS011;56054;50.968;5.816;2024-01-27T12:58:25;9.50;;;1.70;;
68993;SDS011;56054;50.968;5.816;2024-01-27T13:01:32;6.30;;;1.30;;
68993;SDS011;56054;50.968;5.816;2024-01-27T13:04:39;12.37;;;1.50;;
68993;SDS011;56054;50.968;5.816;2024-01-27T13:07:46;5.60;;;1.50;;
68993;SDS011;56054;50.968;5.816;2024-01-27T13:10:53;5.63;;;1.37;;
68993;SDS011;56054;50.968;5.816;2024-01-27T13:14:00;10.97;;;2.13;;
68993;SDS011;56054;50.968;5.816;2024-01-27T13:17:07;31.87;;;14.33;;
68993;SDS011;56054;50.968;5.816;2024-01-27T13:20:14;6.70;;;1.80;;
68993;SDS011;56054;50.968;5.816;2024-01-27T13:23:21;11.20;;;1.57;;
68993;SDS011;56054;50.968;5.816;2024-01-27T13:26:28;4.77;;;1.53;;
68993;SDS011;56054;50.968;5.816;2024-01-27T13:29:35;7.40;;;1.70;;
68993;SDS011;56054;50.968;5.816;2024-01-27T13:32:42;5.53;;;1.97;;
68993;SDS011;56054;50.968;5.816;2024-01-27T13:35:50;7.90;;;1.57;;
68993;SDS011;56054;50.968;5.816;2024-01-27T13:38:57;10.23;;;1.67;;
68993;SDS011;56054;50.968;5.816;2024-01-27T13:42:04;5.50;;;1.40;;
68993;SDS011;56054;50.968;5.816;2024-01-27T13:45:11;7.87;;;1.90;;
68993;SDS011;56054;50.968;5.816;2024-01-27T13:48:18;5.57;;;1.40;;
68993;SDS011;56054;50.968;5.816;2024-01-27T13:51:25;14.43;;;3.60;;
68993;SDS011;56054;50.968;5.816;2024-01-27T13:54:32;9.93;;;2.50;;
68993;SDS011;56054;50.968;5.816;2024-01-27T13:57:39;9.47;;;1.63;;
68993;SDS011;56054;50.968;5.816;2024-01-27T14:00:46;11.77;;;1.43;;
68993;SDS011;56054;50.968;5.816;2024-01-27T14:03:53;11.20;;;1.50;;
68993;SDS011;56054;50.968;5.816;2024-01-27T14:07:00;9.33;;;1.20;;
68993;SDS011;56054;50.968;5.816;2024-01-27T14:10:07;13.63;;;1.77;;
68993;SDS011;56054;50.968;5.816;2024-01-27T14:13:14;7.67;;;1.57;;
68993;SDS011;56054;50.968;5.816;2024-01-27T14:16:21;4.70;;;1.20;;
68993;SDS011;56054;50.968;5.816;2024-01-27T14:19:28;5.37;;;1.23;;
68993;SDS011;56054;50.968;5.816;2024-01-27T14:22:35;10.33;;;1.97;;
68993;SDS011;56054;50.968;5.816;2024-01-27T14:25:42;10.03;;;2.00;;
68993;SDS011;56054;50.968;5.816;2024-01-27T14:28:49;11.93;;;2.20;;
68993;SDS011;56054;50.968;5.816;2024-01-27T14:31:56;11.83;;;1.80;;
68993;SDS011;56054;50.968;5.816;2024-01-27T14:35:03;15.90;;;3.37;;
68993;SDS011;56054;50.968;5.816;2024-01-27T14:38:10;12.97;;;2.10;;
68993;SDS011;56054;50.968;5.816;2024-01-27T14:41:17;6.83;;;1.30;;
68993;SDS011;56054;50.968;5.816;2024-01-27T14:44:24;8.63;;;1.50;;
68993;SDS011;56054;50.968;5.816;2024-01-27T14:47:31;7.97;;;1.40;;
68993;SDS011;56054;50.968;5.816;2024-01-27T14:50:38;51.40;;;18.43;;
68993;SDS011;56054;50.968;5.816;2024-01-27T14:53:45;21.07;;;7.93;;
68993;SDS011;56054;50.968;5.816;2024-01-27T14:56:52;10.17;;;3.30;;
68993;SDS011;56054;50.968;5.816;2024-01-27T14:59:59;11.47;;;2.33;;
68993;SDS011;56054;50.968;5.816;2024-01-27T15:03:06;7.53;;;2.23;;
68993;SDS011;56054;50.968;5.816;2024-01-27T15:06:13;5.03;;;2.07;;
68993;SDS011;56054;50.968;5.816;2024-01-27T15:09:20;7.00;;;2.10;;
68993;SDS011;56054;50.968;5.816;2024-01-27T15:12:28;9.30;;;1.90;;
68993;SDS011;56054;50.968;5.816;2024-01-27T15:15:35;8.13;;;2.60;;
68993;SDS011;56054;50.968;5.816;2024-01-27T15:18:42;10.27;;;1.80;;
68993;SDS011;56054;50.968;5.816;2024-01-27T15:21:49;9.97;;;2.00;;
68993;SDS011;56054;50.968;5.816;2024-01-27T15:24:56;10.13;;;2.67;;
68993;SDS011;56054;50.968;5.816;2024-01-27T15:28:03;5.57;;;1.93;;
68993;SDS011;56054;50.968;5.816;2024-01-27T15:31:10;9.30;;;1.40;;
68993;SDS011;56054;50.968;5.816;2024-01-27T15:34:17;10.63;;;3.30;;
68993;SDS011;56054;50.968;5.816;2024-01-27T15:37:24;12.00;;;3.60;;
68993;SDS011;56054;50.968;5.816;2024-01-27T15:40:31;10.30;;;2.30;;
68993;SDS011;56054;50.968;5.816;2024-01-27T15:43:38;16.90;;;2.93;;
68993;SDS011;56054;50.968;5.816;2024-01-27T15:46:45;12.30;;;3.50;;
68993;SDS011;56054;50.968;5.816;2024-01-27T15:49:52;7.73;;;3.20;;
68993;SDS011;56054;50.968;5.816;2024-01-27T15:53:06;11.70;;;4.17;;
68993;SDS011;56054;50.968;5.816;2024-01-27T15:56:13;10.03;;;2.50;;
68993;SDS011;56054;50.968;5.816;2024-01-27T15:59:20;8.87;;;2.20;;
68993;SDS011;56054;50.968;5.816;2024-01-27T16:02:27;7.27;;;2.67;;
68993;SDS011;56054;50.968;5.816;2024-01-27T16:05:34;9.00;;;2.90;;
68993;SDS011;56054;50.968;5.816;2024-01-27T16:08:41;8.17;;;3.30;;
68993;SDS011;56054;50.968;5.816;2024-01-27T16:11:48;12.63;;;3.10;;
68993;SDS011;56054;50.968;5.816;2024-01-27T16:14:55;9.97;;;2.87;;
68993;SDS011;56054;50.968;5.816;2024-01-27T16:18:02;7.13;;;2.57;;
68993;SDS011;56054;50.968;5.816;2024-01-27T16:21:09;12.30;;;4.00;;
68993;SDS011;56054;50.968;5.816;2024-01-27T16:24:16;10.77;;;4.17;;
68993;SDS011;56054;50.968;5.816;2024-01-27T16:27:23;18.57;;;4.80;;
68993;SDS011;56054;50.968;5.816;2024-01-27T16:30:30;10.30;;;4.60;;
68993;SDS011;56054;50.968;5.816;2024-01-27T16:33:37;14.70;;;5.10;;
68993;SDS011;56054;50.968;5.816;2024-01-27T16:36:44;16.50;;;6.00;;
68993;SDS011;56054;50.968;5.816;2024-01-27T16:39:51;16.27;;;6.00;;
68993;SDS011;56054;50.968;5.816;2024-01-27T16:42:58;18.77;;;5.87;;
68993;SDS011;56054;50.968;5.816;2024-01-27T16:46:06;19.73;;;5.17;;
68993;SDS011;56054;50.968;5.816;2024-01-27T16:49:13;16.93;;;4.40;;
68993;SDS011;56054;50.968;5.816;2024-01-27T16:52:20;12.87;;;4.17;;
68993;SDS011;56054;50.968;5.816;2024-01-27T16:55:27;15.90;;;3.87;;
68993;SDS011;56054;50.968;5.816;2024-01-27T16:58:34;12.17;;;4.97;;
68993;SDS011;56054;50.968;5.816;2024-01-27T17:01:41;15.53;;;5.60;;
68993;SDS011;56054;50.968;5.816;2024-01-27T17:04:48;11.87;;;5.60;;
68993;SDS011;56054;50.968;5.816;2024-01-27T17:07:55;17.03;;;5.60;;
68993;SDS011;56054;50.968;5.816;2024-01-27T17:11:02;14.97;;;5.53;;
68993;SDS011;56054;50.968;5.816;2024-01-27T17:14:09;16.53;;;5.83;;
68993;SDS011;56054;50.968;5.816;2024-01-27T17:17:16;14.20;;;5.40;;
68993;SDS011;56054;50.968;5.816;2024-01-27T17:20:23;14.90;;;5.63;;
68993;SDS011;56054;50.968;5.816;2024-01-27T17:23:30;16.80;;;6.50;;
68993;SDS011;56054;50.968;5.816;2024-01-27T17:26:37;13.90;;;5.23;;
68993;SDS011;56054;50.968;5.816;2024-01-27T17:29:45;18.70;;;5.67;;
68993;SDS011;56054;50.968;5.816;2024-01-27T17:32:52;15.47;;;5.77;;
68993;SDS011;56054;50.968;5.816;2024-01-27T17:35:59;17.17;;;8.30;;
68993;SDS011;56054;50.968;5.816;2024-01-27T17:39:06;20.23;;;7.03;;
68993;SDS011;56054;50.968;5.816;2024-01-27T17:42:13;19.43;;;7.57;;
68993;SDS011;56054;50.968;5.816;2024-01-27T17:45:20;18.63;;;7.27;;
68993;SDS011;56054;50.968;5.816;2024-01-27T17:48:27;21.07;;;8.53;;
68993;SDS011;56054;50.968;5.816;2024-01-27T17:51:34;20.50;;;8.83;;
68993;SDS011;56054;50.968;5.816;2024-01-27T17:54:41;19.93;;;8.20;;
68993;SDS011;56054;50.968;5.816;2024-01-27T17:57:48;20.97;;;8.37;;
68993;SDS011;56054;50.968;5.816;2024-01-27T18:00:55;20.37;;;8.77;;
68993;SDS011;56054;50.968;5.816;2024-01-27T18:04:02;15.97;;;7.73;;
68993;SDS011;56054;50.968;5.816;2024-01-27T18:07:09;13.77;;;7.30;;
68993;SDS011;56054;50.968;5.816;2024-01-27T18:10:16;15.63;;;6.90;;
68993;SDS011;56054;50.968;5.816;2024-01-27T18:13:23;23.90;;;9.67;;
68993;SDS011;56054;50.968;5.816;2024-01-27T18:16:30;23.40;;;10.37;;
68993;SDS011;56054;50.968;5.816;2024-01-27T18:19:37;25.73;;;11.60;;
68993;SDS011;56054;50.968;5.816;2024-01-27T18:22:44;23.07;;;10.63;;
68993;SDS011;56054;50.968;5.816;2024-01-27T18:25:51;23.00;;;9.70;;
68993;SDS011;56054;50.968;5.816;2024-01-27T18:28:58;28.47;;;10.50;;
68993;SDS011;56054;50.968;5.816;2024-01-27T18:32:05;20.03;;;8.93;;
68993;SDS011;56054;50.968;5.816;2024-01-27T18:35:12;21.53;;;8.73;;